Map

Track Data

SID SEASON NUMBER BASIN SUBBASIN NAME ISO_TIME NATURE LAT LON WMO_WIND WMO_PRES WMO_AGENCY TRACK_TYPE DIST2LAND LANDFALL IFLAG USA_AGENCY USA_ATCF_ID USA_LAT USA_LON USA_RECORD USA_STATUS USA_WIND USA_PRES USA_SSHS USA_R34_NE USA_R34_SE USA_R34_SW USA_R34_NW USA_R50_NE USA_R50_SE USA_R50_SW USA_R50_NW USA_R64_NE USA_R64_SE USA_R64_SW USA_R64_NW USA_POCI USA_ROCI USA_RMW USA_EYE TOKYO_LAT TOKYO_LON TOKYO_GRADE TOKYO_WIND TOKYO_PRES TOKYO_R50_DIR TOKYO_R50_LONG TOKYO_R50_SHORT TOKYO_R30_DIR TOKYO_R30_LONG TOKYO_R30_SHORT TOKYO_LAND CMA_LAT CMA_LON CMA_CAT CMA_WIND CMA_PRES HKO_LAT HKO_LON HKO_CAT HKO_WIND HKO_PRES NEWDELHI_LAT NEWDELHI_LON NEWDELHI_GRADE NEWDELHI_WIND NEWDELHI_PRES NEWDELHI_CI NEWDELHI_DP NEWDELHI_POCI REUNION_LAT REUNION_LON REUNION_TYPE REUNION_WIND REUNION_PRES REUNION_TNUM REUNION_CI REUNION_RMW REUNION_R34_NE REUNION_R34_SE REUNION_R34_SW REUNION_R34_NW REUNION_R50_NE REUNION_R50_SE REUNION_R50_SW REUNION_R50_NW REUNION_R64_NE REUNION_R64_SE REUNION_R64_SW REUNION_R64_NW BOM_LAT BOM_LON BOM_TYPE BOM_WIND BOM_PRES BOM_TNUM BOM_CI BOM_RMW BOM_R34_NE BOM_R34_SE BOM_R34_SW BOM_R34_NW BOM_R50_NE BOM_R50_SE BOM_R50_SW BOM_R50_NW BOM_R64_NE BOM_R64_SE BOM_R64_SW BOM_R64_NW BOM_ROCI BOM_POCI BOM_EYE BOM_POS_METHOD BOM_PRES_METHOD NADI_LAT NADI_LON NADI_CAT NADI_WIND NADI_PRES WELLINGTON_LAT WELLINGTON_LON WELLINGTON_WIND WELLINGTON_PRES DS824_LAT DS824_LON DS824_STAGE DS824_WIND DS824_PRES TD9636_LAT TD9636_LON TD9636_STAGE TD9636_WIND TD9636_PRES TD9635_LAT TD9635_LON TD9635_WIND TD9635_PRES TD9635_ROCI NEUMANN_LAT NEUMANN_LON NEUMANN_CLASS NEUMANN_WIND NEUMANN_PRES MLC_LAT MLC_LON MLC_CLASS MLC_WIND MLC_PRES USA_GUST BOM_GUST BOM_GUST_PER REUNION_GUST REUNION_GUST_PER USA_SEAHGT USA_SEARAD_NE USA_SEARAD_SE USA_SEARAD_SW USA_SEARAD_NW STORM_SPEED STORM_DIR
1876032S17059 1876 3 SI MM NOT_NAMED 1876-02-01 06:00:00 NR -16.9000 58.6000 reunion main 370 359 _____O________ -1 -16.9000 58.6000 99 9.90000 3 156
1876032S17059 1876 3 SI MM NOT_NAMED 1876-02-01 09:00:00 NR -17.0401 58.6578 main 362 341 _____P________ -1 -17.0401 58.6578 99 3 158
1876032S17059 1876 3 SI MM NOT_NAMED 1876-02-01 12:00:00 NR -17.1812 58.7173 main 341 330 _____P________ -1 -17.1812 58.7173 99 3 157
1876032S17059 1876 3 SI MM NOT_NAMED 1876-02-01 15:00:00 NR -17.3241 58.7801 main 333 313 _____P________ -1 -17.3241 58.7801 99 3 157
1876032S17059 1876 3 SI MM NOT_NAMED 1876-02-01 18:00:00 NR -17.4699 58.8478 main 313 306 _____P________ -1 -17.4699 58.8478 99 3 155
1876032S17059 1876 3 SI MM NOT_NAMED 1876-02-01 21:00:00 NR -17.6194 58.9220 main 306 291 _____P________ -1 -17.6194 58.9220 99 3 154
1876032S17059 1876 3 SI MM NOT_NAMED 1876-02-02 00:00:00 NR -17.7737 59.0043 main 291 281 _____P________ -1 -17.7737 59.0043 99 4 152
1876032S17059 1876 3 SI MM NOT_NAMED 1876-02-02 03:00:00 NR -17.9335 59.0964 main 286 273 _____P________ -1 -17.9335 59.0964 99 4 150
1876032S17059 1876 3 SI MM NOT_NAMED 1876-02-02 06:00:00 NR -18.1000 59.2000 reunion main 273 262 _____O________ -1 -18.1000 59.2000 99 9.90000 4 148
1876032S17059 1876 3 SI MM NOT_NAMED 1876-02-02 09:00:00 NR -18.2734 59.3160 main 262 260 _____P________ -1 -18.2734 59.3160 99 4 147
1876032S17059 1876 3 SI MM NOT_NAMED 1876-02-02 12:00:00 NR -18.4520 59.4428 main 252 252 _____P________ -1 -18.4520 59.4428 99 4 145
1876032S17059 1876 3 SI MM NOT_NAMED 1876-02-02 15:00:00 NR -18.6334 59.5781 main 260 253 _____P________ -1 -18.6334 59.5781 99 5 144
1876032S17059 1876 3 SI MM NOT_NAMED 1876-02-02 18:00:00 NR -18.8152 59.7195 main 255 252 _____P________ -1 -18.8152 59.7195 99 5 143
1876032S17059 1876 3 SI MM NOT_NAMED 1876-02-02 21:00:00 NR -18.9951 59.8648 main 261 256 _____P________ -1 -18.9951 59.8648 99 5 142
1876032S17059 1876 3 SI MM NOT_NAMED 1876-02-03 00:00:00 NR -19.1707 60.0116 main 261 261 _____P________ -1 -19.1707 60.0116 99 4 141
1876032S17059 1876 3 SI MM NOT_NAMED 1876-02-03 03:00:00 NR -19.3398 60.1574 main 274 270 _____P________ -1 -19.3398 60.1574 99 4 141
1876032S17059 1876 3 SI MM NOT_NAMED 1876-02-03 06:00:00 NR -19.5000 60.3000 reunion main 276 272 _____O________ -1 -19.5000 60.3000 99 9.90000 4 140
1876032S17059 1876 3 SI MM NOT_NAMED 1876-02-03 09:00:00 NR -19.6496 60.4374 main 282 279 _____P________ -1 -19.6496 60.4374 99 4 139
1876032S17059 1876 3 SI MM NOT_NAMED 1876-02-03 12:00:00 NR -19.7893 60.5698 main 297 295 _____P________ -1 -19.7893 60.5698 99 4 138
1876032S17059 1876 3 SI MM NOT_NAMED 1876-02-03 15:00:00 NR -19.9207 60.6979 main 306 304 _____P________ -1 -19.9207 60.6979 99 4 137
1876032S17059 1876 3 SI MM NOT_NAMED 1876-02-03 18:00:00 NR -20.0450 60.8225 main 314 313 _____P________ -1 -20.0450 60.8225 99 3 136
1876032S17059 1876 3 SI MM NOT_NAMED 1876-02-03 21:00:00 NR -20.1637 60.9442 main 323 323 _____P________ -1 -20.1637 60.9442 99 3 136
1876032S17059 1876 3 SI MM NOT_NAMED 1876-02-04 00:00:00 NR -20.2782 61.0639 main 344 344 _____P________ -1 -20.2782 61.0639 99 3 135
1876032S17059 1876 3 SI MM NOT_NAMED 1876-02-04 03:00:00 NR -20.3898 61.1822 main 354 354 _____P________ -1 -20.3898 61.1822 99 3 135
1876032S17059 1876 3 SI MM NOT_NAMED 1876-02-04 06:00:00 NR -20.5000 61.3000 reunion main 365 _____O________ -1 -20.5000 61.3000 99 9.90000 3 134

About IBTrACS Database

This database is a web-friendly format of International Best Track Archive for Climate Stewardship (IBTrACS), a global best track data archive curated by NOAA dating back to 1842.

Updated: 2021-12-03